• location
  • image
mod_vvisit_countermod_vvisit_countermod_vvisit_countermod_vvisit_countermod_vvisit_countermod_vvisit_counter
mod_vvisit_counterToday551
mod_vvisit_counterYesterday1050
mod_vvisit_counterThis week4648
mod_vvisit_counterLast week6262
mod_vvisit_counterThis month23526
mod_vvisit_counterLast month35742
mod_vvisit_counterAll days661884

We have: 10 guests, 2 bots online
Your IP: 54.81.47.168
 , 
Today: May 27, 2017
Airport / Company

Company

Municipal company Siauliu oro uostas.

In November 2003, under the decision of Siauliai City Municipality Council, municipal company Siauliu Oro Uostas was set up. Under the resolution of the Lithuanian Government, the company was granted the right to serve civil transport in Siauliai Military Aerodrome.

The company is a limited liability public entity.

The main objective  – to provide public passenger and cargo air transportation services.

The company’s main activities include airport operations and air transport services.

Currently, 25 employees work for the company.

Organisation chart of the company is given below:

 

Today

Saturday, 27 May 2017

Weather Forecast

Siauliai °C
   

Aviation Weather Forecast

[source: ADDS]
METAR
EYSA 271320Z VRB02KT CAVOK 18/08 Q1022 BLU NOSIG =
TAF
TAF EYSA 271100Z 2712/2721 27010KT 9000 BKN040 TEMPO 2712/2716 30020KT SCT030CB =
SR / SS: 02:01 / 18:49 UTC (EYSA 2017-05-27)

Search

Who's Online

We have 12 guests online

tic logo en